sensor_id;sensor_type;location;lat;lon;timestamp;P1;durP1;ratioP1;P2;durP2;ratioP2
70247;SDS011;57641;51.416;5.506;2023-05-10T00:00:13;11.63;;;6.88;;
70247;SDS011;57641;51.416;5.506;2023-05-10T00:02:40;14.75;;;7.90;;
70247;SDS011;57641;51.416;5.506;2023-05-10T00:05:06;15.35;;;7.95;;
70247;SDS011;57641;51.416;5.506;2023-05-10T00:07:31;13.18;;;7.75;;
70247;SDS011;57641;51.416;5.506;2023-05-10T00:09:57;13.90;;;7.97;;
70247;SDS011;57641;51.416;5.506;2023-05-10T00:12:22;15.65;;;7.93;;
70247;SDS011;57641;51.416;5.506;2023-05-10T00:14:48;16.52;;;8.98;;
70247;SDS011;57641;51.416;5.506;2023-05-10T00:17:13;16.98;;;8.80;;
70247;SDS011;57641;51.416;5.506;2023-05-10T00:19:39;17.83;;;8.52;;
70247;SDS011;57641;51.416;5.506;2023-05-10T00:22:04;16.23;;;9.05;;
70247;SDS011;57641;51.416;5.506;2023-05-10T00:24:30;17.77;;;9.15;;
70247;SDS011;57641;51.416;5.506;2023-05-10T00:26:55;14.32;;;9.23;;
70247;SDS011;57641;51.416;5.506;2023-05-10T00:29:21;16.83;;;9.82;;
70247;SDS011;57641;51.416;5.506;2023-05-10T00:31:46;21.05;;;11.82;;
70247;SDS011;57641;51.416;5.506;2023-05-10T00:34:12;21.10;;;11.95;;
70247;SDS011;57641;51.416;5.506;2023-05-10T00:36:37;19.02;;;10.52;;
70247;SDS011;57641;51.416;5.506;2023-05-10T00:39:03;20.88;;;12.02;;
70247;SDS011;57641;51.416;5.506;2023-05-10T00:41:28;20.35;;;11.43;;
70247;SDS011;57641;51.416;5.506;2023-05-10T00:43:57;23.27;;;12.55;;
70247;SDS011;57641;51.416;5.506;2023-05-10T00:46:22;25.00;;;13.77;;
70247;SDS011;57641;51.416;5.506;2023-05-10T00:48:48;30.35;;;14.13;;
70247;SDS011;57641;51.416;5.506;2023-05-10T00:51:14;29.98;;;14.27;;
70247;SDS011;57641;51.416;5.506;2023-05-10T00:53:40;30.77;;;14.10;;
70247;SDS011;57641;51.416;5.506;2023-05-10T00:56:05;26.83;;;14.23;;
70247;SDS011;57641;51.416;5.506;2023-05-10T00:58:31;34.78;;;15.77;;
70247;SDS011;57641;51.416;5.506;2023-05-10T01:00:57;32.85;;;15.80;;
70247;SDS011;57641;51.416;5.506;2023-05-10T01:03:24;29.83;;;14.95;;
70247;SDS011;57641;51.416;5.506;2023-05-10T01:05:50;29.58;;;15.68;;
70247;SDS011;57641;51.416;5.506;2023-05-10T01:08:15;34.15;;;15.77;;
70247;SDS011;57641;51.416;5.506;2023-05-10T01:10:41;36.72;;;16.50;;
70247;SDS011;57641;51.416;5.506;2023-05-10T01:13:09;34.45;;;16.52;;
70247;SDS011;57641;51.416;5.506;2023-05-10T01:15:35;38.05;;;17.30;;
70247;SDS011;57641;51.416;5.506;2023-05-10T01:18:01;35.78;;;17.52;;
70247;SDS011;57641;51.416;5.506;2023-05-10T01:20:29;36.45;;;16.90;;
70247;SDS011;57641;51.416;5.506;2023-05-10T01:23:17;53.22;;;20.77;;
70247;SDS011;57641;51.416;5.506;2023-05-10T01:33:54;40.38;;;18.48;;
70247;SDS011;57641;51.416;5.506;2023-05-10T01:36:31;43.42;;;19.50;;
70247;SDS011;57641;51.416;5.506;2023-05-10T01:41:51;43.70;;;19.33;;
70247;SDS011;57641;51.416;5.506;2023-05-10T01:47:09;38.97;;;18.15;;
70247;SDS011;57641;51.416;5.506;2023-05-10T01:49:45;42.58;;;19.08;;
70247;SDS011;57641;51.416;5.506;2023-05-10T01:52:15;38.83;;;17.48;;
70247;SDS011;57641;51.416;5.506;2023-05-10T01:54:54;36.83;;;18.20;;
70247;SDS011;57641;51.416;5.506;2023-05-10T01:57:25;34.80;;;17.73;;
70247;SDS011;57641;51.416;5.506;2023-05-10T01:59:52;42.45;;;19.10;;
70247;SDS011;57641;51.416;5.506;2023-05-10T02:02:20;41.70;;;19.27;;
70247;SDS011;57641;51.416;5.506;2023-05-10T02:04:46;40.67;;;19.65;;
70247;SDS011;57641;51.416;5.506;2023-05-10T02:07:14;40.45;;;19.10;;
70247;SDS011;57641;51.416;5.506;2023-05-10T02:09:41;41.58;;;19.65;;
70247;SDS011;57641;51.416;5.506;2023-05-10T02:12:12;39.40;;;19.17;;
70247;SDS011;57641;51.416;5.506;2023-05-10T02:18:02;40.83;;;18.25;;
70247;SDS011;57641;51.416;5.506;2023-05-10T02:20:29;38.15;;;17.67;;
70247;SDS011;57641;51.416;5.506;2023-05-10T02:22:57;42.60;;;18.70;;
70247;SDS011;57641;51.416;5.506;2023-05-10T02:25:24;47.63;;;20.08;;
70247;SDS011;57641;51.416;5.506;2023-05-10T02:27:51;45.85;;;21.05;;
70247;SDS011;57641;51.416;5.506;2023-05-10T02:30:21;40.67;;;19.40;;
70247;SDS011;57641;51.416;5.506;2023-05-10T02:32:47;40.30;;;20.02;;
70247;SDS011;57641;51.416;5.506;2023-05-10T02:35:15;46.75;;;21.45;;
70247;SDS011;57641;51.416;5.506;2023-05-10T02:37:41;53.20;;;22.85;;
70247;SDS011;57641;51.416;5.506;2023-05-10T02:40:09;52.65;;;23.35;;
70247;SDS011;57641;51.416;5.506;2023-05-10T02:42:37;49.85;;;21.88;;
70247;SDS011;57641;51.416;5.506;2023-05-10T02:45:07;54.60;;;22.92;;
70247;SDS011;57641;51.416;5.506;2023-05-10T02:47:37;58.15;;;23.90;;
70247;SDS011;57641;51.416;5.506;2023-05-10T02:50:03;48.13;;;23.25;;
70247;SDS011;57641;51.416;5.506;2023-05-10T02:52:29;57.05;;;25.08;;
70247;SDS011;57641;51.416;5.506;2023-05-10T02:55:11;54.67;;;23.90;;
70247;SDS011;57641;51.416;5.506;2023-05-10T02:57:43;53.30;;;24.83;;
70247;SDS011;57641;51.416;5.506;2023-05-10T03:00:14;50.03;;;23.52;;
70247;SDS011;57641;51.416;5.506;2023-05-10T03:02:43;54.15;;;24.08;;
70247;SDS011;57641;51.416;5.506;2023-05-10T03:05:09;59.47;;;24.40;;
70247;SDS011;57641;51.416;5.506;2023-05-10T03:07:34;52.60;;;22.92;;
70247;SDS011;57641;51.416;5.506;2023-05-10T03:10:00;49.85;;;23.98;;
70247;SDS011;57641;51.416;5.506;2023-05-10T03:15:13;59.95;;;24.50;;
70247;SDS011;57641;51.416;5.506;2023-05-10T03:17:49;59.13;;;26.10;;
70247;SDS011;57641;51.416;5.506;2023-05-10T03:20:22;50.97;;;22.33;;
70247;SDS011;57641;51.416;5.506;2023-05-10T03:26:05;44.28;;;20.48;;
70247;SDS011;57641;51.416;5.506;2023-05-10T03:28:33;46.22;;;20.58;;
70247;SDS011;57641;51.416;5.506;2023-05-10T03:31:00;49.80;;;22.00;;
70247;SDS011;57641;51.416;5.506;2023-05-10T03:33:27;53.33;;;21.27;;
70247;SDS011;57641;51.416;5.506;2023-05-10T03:35:53;48.60;;;20.85;;
70247;SDS011;57641;51.416;5.506;2023-05-10T03:38:18;43.25;;;21.00;;
70247;SDS011;57641;51.416;5.506;2023-05-10T03:40:43;43.90;;;20.20;;
70247;SDS011;57641;51.416;5.506;2023-05-10T03:43:09;53.80;;;22.88;;
70247;SDS011;57641;51.416;5.506;2023-05-10T03:45:34;44.63;;;21.60;;
70247;SDS011;57641;51.416;5.506;2023-05-10T03:48:00;45.38;;;19.90;;
70247;SDS011;57641;51.416;5.506;2023-05-10T03:50:26;48.97;;;21.25;;
70247;SDS011;57641;51.416;5.506;2023-05-10T03:52:51;41.25;;;18.95;;
70247;SDS011;57641;51.416;5.506;2023-05-10T03:55:17;48.42;;;21.05;;
70247;SDS011;57641;51.416;5.506;2023-05-10T03:57:43;47.80;;;20.45;;
70247;SDS011;57641;51.416;5.506;2023-05-10T04:00:09;43.58;;;19.17;;
70247;SDS011;57641;51.416;5.506;2023-05-10T04:02:35;43.58;;;19.83;;
70247;SDS011;57641;51.416;5.506;2023-05-10T04:05:00;44.83;;;19.65;;
70247;SDS011;57641;51.416;5.506;2023-05-10T04:07:26;46.78;;;20.23;;
70247;SDS011;57641;51.416;5.506;2023-05-10T04:09:52;47.80;;;19.50;;
70247;SDS011;57641;51.416;5.506;2023-05-10T04:12:17;60.53;;;24.02;;
70247;SDS011;57641;51.416;5.506;2023-05-10T04:14:43;56.65;;;22.35;;
70247;SDS011;57641;51.416;5.506;2023-05-10T04:17:08;51.40;;;22.10;;
70247;SDS011;57641;51.416;5.506;2023-05-10T04:19:33;63.72;;;24.95;;
70247;SDS011;57641;51.416;5.506;2023-05-10T04:21:59;67.82;;;24.15;;
70247;SDS011;57641;51.416;5.506;2023-05-10T04:24:24;73.97;;;26.95;;
70247;SDS011;57641;51.416;5.506;2023-05-10T04:26:50;74.43;;;28.05;;
70247;SDS011;57641;51.416;5.506;2023-05-10T04:29:16;93.50;;;31.00;;
70247;SDS011;57641;51.416;5.506;2023-05-10T04:31:42;74.53;;;27.45;;
70247;SDS011;57641;51.416;5.506;2023-05-10T04:34:07;81.65;;;30.77;;
70247;SDS011;57641;51.416;5.506;2023-05-10T04:36:32;75.82;;;28.45;;
70247;SDS011;57641;51.416;5.506;2023-05-10T04:39:00;79.82;;;29.48;;
70247;SDS011;57641;51.416;5.506;2023-05-10T04:41:28;80.43;;;29.15;;
70247;SDS011;57641;51.416;5.506;2023-05-10T04:43:54;76.32;;;28.52;;
70247;SDS011;57641;51.416;5.506;2023-05-10T04:46:20;68.13;;;26.85;;
70247;SDS011;57641;51.416;5.506;2023-05-10T04:48:46;70.22;;;26.95;;
70247;SDS011;57641;51.416;5.506;2023-05-10T04:51:12;79.60;;;29.17;;
70247;SDS011;57641;51.416;5.506;2023-05-10T04:53:37;73.90;;;26.65;;
70247;SDS011;57641;51.416;5.506;2023-05-10T04:56:03;69.18;;;27.58;;
70247;SDS011;57641;51.416;5.506;2023-05-10T04:58:29;76.03;;;27.20;;
70247;SDS011;57641;51.416;5.506;2023-05-10T05:00:55;70.97;;;27.30;;
70247;SDS011;57641;51.416;5.506;2023-05-10T05:03:20;76.15;;;28.33;;
70247;SDS011;57641;51.416;5.506;2023-05-10T05:05:45;67.80;;;26.38;;
70247;SDS011;57641;51.416;5.506;2023-05-10T05:08:11;63.47;;;24.98;;
70247;SDS011;57641;51.416;5.506;2023-05-10T05:10:36;59.33;;;23.55;;
70247;SDS011;57641;51.416;5.506;2023-05-10T05:13:02;56.90;;;24.65;;
70247;SDS011;57641;51.416;5.506;2023-05-10T05:15:27;63.53;;;24.58;;
70247;SDS011;57641;51.416;5.506;2023-05-10T05:17:53;60.13;;;26.10;;
70247;SDS011;57641;51.416;5.506;2023-05-10T05:20:18;50.97;;;21.73;;
70247;SDS011;57641;51.416;5.506;2023-05-10T05:22:44;52.45;;;21.60;;
70247;SDS011;57641;51.416;5.506;2023-05-10T05:25:10;50.53;;;22.88;;
70247;SDS011;57641;51.416;5.506;2023-05-10T05:27:36;49.90;;;22.63;;
70247;SDS011;57641;51.416;5.506;2023-05-10T05:30:02;48.95;;;21.15;;
70247;SDS011;57641;51.416;5.506;2023-05-10T05:32:29;43.75;;;20.15;;
70247;SDS011;57641;51.416;5.506;2023-05-10T05:34:55;45.05;;;19.70;;
70247;SDS011;57641;51.416;5.506;2023-05-10T05:37:20;42.17;;;19.85;;
70247;SDS011;57641;51.416;5.506;2023-05-10T05:39:46;48.22;;;19.55;;
70247;SDS011;57641;51.416;5.506;2023-05-10T05:42:12;40.08;;;18.55;;
70247;SDS011;57641;51.416;5.506;2023-05-10T05:44:38;40.08;;;18.17;;
70247;SDS011;57641;51.416;5.506;2023-05-10T05:47:04;38.40;;;17.83;;
70247;SDS011;57641;51.416;5.506;2023-05-10T05:49:30;38.72;;;17.92;;
70247;SDS011;57641;51.416;5.506;2023-05-10T05:51:59;38.33;;;16.63;;
70247;SDS011;57641;51.416;5.506;2023-05-10T05:54:28;35.63;;;15.95;;
70247;SDS011;57641;51.416;5.506;2023-05-10T05:56:55;31.92;;;16.58;;
70247;SDS011;57641;51.416;5.506;2023-05-10T05:59:21;34.55;;;16.05;;
70247;SDS011;57641;51.416;5.506;2023-05-10T06:01:47;34.72;;;15.80;;
70247;SDS011;57641;51.416;5.506;2023-05-10T06:04:13;37.78;;;17.48;;
70247;SDS011;57641;51.416;5.506;2023-05-10T06:06:38;37.15;;;17.77;;
70247;SDS011;57641;51.416;5.506;2023-05-10T06:09:04;36.80;;;16.70;;
70247;SDS011;57641;51.416;5.506;2023-05-10T06:11:29;36.20;;;17.55;;
70247;SDS011;57641;51.416;5.506;2023-05-10T06:13:57;32.35;;;15.93;;
70247;SDS011;57641;51.416;5.506;2023-05-10T06:16:23;29.77;;;15.23;;
70247;SDS011;57641;51.416;5.506;2023-05-10T06:18:49;34.28;;;16.08;;
70247;SDS011;57641;51.416;5.506;2023-05-10T06:21:14;34.60;;;17.17;;
70247;SDS011;57641;51.416;5.506;2023-05-10T06:23:41;33.20;;;16.25;;
70247;SDS011;57641;51.416;5.506;2023-05-10T06:26:06;34.08;;;16.67;;
70247;SDS011;57641;51.416;5.506;2023-05-10T06:28:32;39.10;;;17.70;;
70247;SDS011;57641;51.416;5.506;2023-05-10T06:30:58;31.10;;;16.45;;
70247;SDS011;57641;51.416;5.506;2023-05-10T06:33:24;33.95;;;17.08;;
70247;SDS011;57641;51.416;5.506;2023-05-10T06:35:50;38.15;;;17.15;;
70247;SDS011;57641;51.416;5.506;2023-05-10T06:38:15;32.88;;;16.23;;
70247;SDS011;57641;51.416;5.506;2023-05-10T06:40:41;33.92;;;16.48;;
70247;SDS011;57641;51.416;5.506;2023-05-10T06:43:07;32.92;;;15.90;;
70247;SDS011;57641;51.416;5.506;2023-05-10T06:45:32;34.17;;;17.13;;
70247;SDS011;57641;51.416;5.506;2023-05-10T06:47:58;35.22;;;16.45;;
70247;SDS011;57641;51.416;5.506;2023-05-10T06:50:23;41.30;;;18.02;;
70247;SDS011;57641;51.416;5.506;2023-05-10T06:52:48;33.70;;;17.38;;
70247;SDS011;57641;51.416;5.506;2023-05-10T06:55:14;31.20;;;16.38;;
70247;SDS011;57641;51.416;5.506;2023-05-10T06:57:39;37.78;;;16.98;;
70247;SDS011;57641;51.416;5.506;2023-05-10T07:00:05;34.75;;;17.33;;
70247;SDS011;57641;51.416;5.506;2023-05-10T07:02:31;37.35;;;18.05;;
70247;SDS011;57641;51.416;5.506;2023-05-10T07:04:57;36.45;;;16.20;;
70247;SDS011;57641;51.416;5.506;2023-05-10T07:07:22;32.97;;;16.88;;
70247;SDS011;57641;51.416;5.506;2023-05-10T07:09:48;35.50;;;16.83;;
70247;SDS011;57641;51.416;5.506;2023-05-10T07:12:15;35.65;;;18.13;;
70247;SDS011;57641;51.416;5.506;2023-05-10T07:14:41;35.35;;;17.73;;
70247;SDS011;57641;51.416;5.506;2023-05-10T07:17:07;33.53;;;16.98;;
70247;SDS011;57641;51.416;5.506;2023-05-10T07:19:32;33.78;;;16.15;;
70247;SDS011;57641;51.416;5.506;2023-05-10T07:21:57;34.83;;;16.55;;
70247;SDS011;57641;51.416;5.506;2023-05-10T07:24:23;34.55;;;16.67;;
70247;SDS011;57641;51.416;5.506;2023-05-10T07:26:49;31.60;;;15.73;;
70247;SDS011;57641;51.416;5.506;2023-05-10T07:29:15;28.67;;;15.52;;
70247;SDS011;57641;51.416;5.506;2023-05-10T07:31:40;30.08;;;16.80;;
70247;SDS011;57641;51.416;5.506;2023-05-10T07:34:08;31.20;;;16.17;;
70247;SDS011;57641;51.416;5.506;2023-05-10T07:36:34;30.88;;;15.35;;
70247;SDS011;57641;51.416;5.506;2023-05-10T07:39:00;27.80;;;15.07;;
70247;SDS011;57641;51.416;5.506;2023-05-10T07:41:25;27.17;;;13.43;;
70247;SDS011;57641;51.416;5.506;2023-05-10T07:43:52;23.55;;;12.15;;
70247;SDS011;57641;51.416;5.506;2023-05-10T07:46:17;21.27;;;11.50;;
70247;SDS011;57641;51.416;5.506;2023-05-10T07:48:44;19.85;;;11.63;;
70247;SDS011;57641;51.416;5.506;2023-05-10T07:51:09;18.25;;;10.07;;
70247;SDS011;57641;51.416;5.506;2023-05-10T07:53:35;18.58;;;9.35;;
70247;SDS011;57641;51.416;5.506;2023-05-10T07:59:03;19.95;;;8.93;;
70247;SDS011;57641;51.416;5.506;2023-05-10T08:01:30;16.48;;;8.63;;
70247;SDS011;57641;51.416;5.506;2023-05-10T08:03:57;19.65;;;9.23;;
70247;SDS011;57641;51.416;5.506;2023-05-10T08:06:23;17.17;;;6.95;;
70247;SDS011;57641;51.416;5.506;2023-05-10T08:08:49;15.05;;;8.10;;
70247;SDS011;57641;51.416;5.506;2023-05-10T08:11:19;13.27;;;6.88;;
70247;SDS011;57641;51.416;5.506;2023-05-10T08:13:45;16.15;;;7.70;;
70247;SDS011;57641;51.416;5.506;2023-05-10T08:16:12;13.57;;;6.65;;
70247;SDS011;57641;51.416;5.506;2023-05-10T08:18:38;12.95;;;6.97;;
70247;SDS011;57641;51.416;5.506;2023-05-10T08:21:04;13.88;;;6.65;;
70247;SDS011;57641;51.416;5.506;2023-05-10T08:23:30;12.15;;;6.03;;
70247;SDS011;57641;51.416;5.506;2023-05-10T08:25:56;12.85;;;7.90;;
70247;SDS011;57641;51.416;5.506;2023-05-10T08:28:21;13.18;;;7.43;;
70247;SDS011;57641;51.416;5.506;2023-05-10T08:30:46;14.07;;;7.80;;
70247;SDS011;57641;51.416;5.506;2023-05-10T08:33:12;16.67;;;8.20;;
70247;SDS011;57641;51.416;5.506;2023-05-10T08:35:37;16.15;;;8.07;;
70247;SDS011;57641;51.416;5.506;2023-05-10T08:38:03;14.63;;;7.72;;
70247;SDS011;57641;51.416;5.506;2023-05-10T08:40:30;15.50;;;8.38;;
70247;SDS011;57641;51.416;5.506;2023-05-10T08:42:58;13.77;;;7.57;;
70247;SDS011;57641;51.416;5.506;2023-05-10T08:45:29;11.80;;;7.68;;
70247;SDS011;57641;51.416;5.506;2023-05-10T08:47:58;12.82;;;7.63;;
70247;SDS011;57641;51.416;5.506;2023-05-10T08:50:26;14.15;;;7.97;;
70247;SDS011;57641;51.416;5.506;2023-05-10T08:52:53;14.18;;;7.40;;
70247;SDS011;57641;51.416;5.506;2023-05-10T08:55:23;14.35;;;7.45;;
70247;SDS011;57641;51.416;5.506;2023-05-10T08:57:49;10.77;;;6.45;;
70247;SDS011;57641;51.416;5.506;2023-05-10T09:00:15;11.18;;;6.90;;
70247;SDS011;57641;51.416;5.506;2023-05-10T09:02:42;9.23;;;6.18;;
70247;SDS011;57641;51.416;5.506;2023-05-10T09:05:09;10.32;;;5.72;;
70247;SDS011;57641;51.416;5.506;2023-05-10T09:07:35;9.50;;;5.28;;
70247;SDS011;57641;51.416;5.506;2023-05-10T09:10:01;7.68;;;5.30;;
70247;SDS011;57641;51.416;5.506;2023-05-10T09:12:28;9.02;;;5.30;;
70247;SDS011;57641;51.416;5.506;2023-05-10T09:14:53;11.43;;;5.78;;
70247;SDS011;57641;51.416;5.506;2023-05-10T09:17:20;9.10;;;5.10;;
70247;SDS011;57641;51.416;5.506;2023-05-10T09:19:48;9.25;;;5.72;;
70247;SDS011;57641;51.416;5.506;2023-05-10T09:22:14;8.77;;;5.43;;
70247;SDS011;57641;51.416;5.506;2023-05-10T09:24:39;9.07;;;5.70;;
70247;SDS011;57641;51.416;5.506;2023-05-10T09:27:10;11.07;;;6.35;;
70247;SDS011;57641;51.416;5.506;2023-05-10T09:29:42;11.77;;;6.68;;
70247;SDS011;57641;51.416;5.506;2023-05-10T09:32:08;11.85;;;6.68;;
70247;SDS011;57641;51.416;5.506;2023-05-10T09:34:33;9.32;;;6.22;;
70247;SDS011;57641;51.416;5.506;2023-05-10T09:37:00;12.63;;;7.35;;
70247;SDS011;57641;51.416;5.506;2023-05-10T09:39:35;11.45;;;6.85;;
70247;SDS011;57641;51.416;5.506;2023-05-10T09:42:02;10.55;;;7.32;;
70247;SDS011;57641;51.416;5.506;2023-05-10T09:44:32;12.50;;;7.20;;
70247;SDS011;57641;51.416;5.506;2023-05-10T09:46:59;11.98;;;7.07;;
70247;SDS011;57641;51.416;5.506;2023-05-10T09:49:26;12.10;;;7.57;;
70247;SDS011;57641;51.416;5.506;2023-05-10T09:52:04;11.02;;;7.65;;
70247;SDS011;57641;51.416;5.506;2023-05-10T09:54:31;11.18;;;7.53;;
70247;SDS011;57641;51.416;5.506;2023-05-10T09:56:57;13.43;;;7.50;;
70247;SDS011;57641;51.416;5.506;2023-05-10T09:59:24;12.00;;;7.40;;
70247;SDS011;57641;51.416;5.506;2023-05-10T10:01:52;12.88;;;7.18;;
70247;SDS011;57641;51.416;5.506;2023-05-10T10:04:20;12.70;;;7.05;;
70247;SDS011;57641;51.416;5.506;2023-05-10T10:06:46;9.70;;;6.32;;
70247;SDS011;57641;51.416;5.506;2023-05-10T10:09:23;11.57;;;6.38;;
70247;SDS011;57641;51.416;5.506;2023-05-10T10:11:49;11.15;;;6.68;;
70247;SDS011;57641;51.416;5.506;2023-05-10T10:14:14;13.32;;;7.47;;
70247;SDS011;57641;51.416;5.506;2023-05-10T10:16:43;10.23;;;6.63;;
70247;SDS011;57641;51.416;5.506;2023-05-10T10:19:10;11.75;;;6.80;;
70247;SDS011;57641;51.416;5.506;2023-05-10T10:21:35;11.93;;;6.82;;
70247;SDS011;57641;51.416;5.506;2023-05-10T10:24:01;9.32;;;5.57;;
70247;SDS011;57641;51.416;5.506;2023-05-10T10:26:26;7.75;;;5.20;;
70247;SDS011;57641;51.416;5.506;2023-05-10T10:31:37;7.85;;;4.15;;
70247;SDS011;57641;51.416;5.506;2023-05-10T10:34:08;5.60;;;4.07;;
70247;SDS011;57641;51.416;5.506;2023-05-10T10:36:45;5.90;;;4.45;;
70247;SDS011;57641;51.416;5.506;2023-05-10T10:39:15;5.75;;;4.30;;
70247;SDS011;57641;51.416;5.506;2023-05-10T10:41:54;7.53;;;4.18;;
70247;SDS011;57641;51.416;5.506;2023-05-10T10:49:50;8.43;;;5.43;;
70247;SDS011;57641;51.416;5.506;2023-05-10T11:02:46;15.38;;;8.95;;
70247;SDS011;57641;51.416;5.506;2023-05-10T11:10:20;19.13;;;10.77;;
70247;SDS011;57641;51.416;5.506;2023-05-10T11:13:08;18.35;;;10.43;;
70247;SDS011;57641;51.416;5.506;2023-05-10T11:15:36;16.10;;;10.52;;
70247;SDS011;57641;51.416;5.506;2023-05-10T11:18:19;19.95;;;11.20;;
70247;SDS011;57641;51.416;5.506;2023-05-10T11:26:13;16.27;;;9.68;;
70247;SDS011;57641;51.416;5.506;2023-05-10T11:28:46;15.50;;;9.40;;
70247;SDS011;57641;51.416;5.506;2023-05-10T11:31:13;16.67;;;9.63;;
70247;SDS011;57641;51.416;5.506;2023-05-10T11:33:45;19.08;;;9.85;;
70247;SDS011;57641;51.416;5.506;2023-05-10T11:36:20;18.25;;;10.27;;
70247;SDS011;57641;51.416;5.506;2023-05-10T11:38:47;18.63;;;10.38;;
70247;SDS011;57641;51.416;5.506;2023-05-10T11:41:14;16.38;;;11.02;;
70247;SDS011;57641;51.416;5.506;2023-05-10T11:43:41;22.52;;;13.23;;
70247;SDS011;57641;51.416;5.506;2023-05-10T11:46:08;20.80;;;12.52;;
70247;SDS011;57641;51.416;5.506;2023-05-10T11:48:35;18.60;;;11.10;;
70247;SDS011;57641;51.416;5.506;2023-05-10T11:51:03;19.00;;;11.27;;
70247;SDS011;57641;51.416;5.506;2023-05-10T11:53:30;17.88;;;11.70;;
70247;SDS011;57641;51.416;5.506;2023-05-10T11:56:09;18.58;;;11.07;;
70247;SDS011;57641;51.416;5.506;2023-05-10T11:58:36;21.52;;;11.40;;
70247;SDS011;57641;51.416;5.506;2023-05-10T12:01:06;17.45;;;11.23;;
70247;SDS011;57641;51.416;5.506;2023-05-10T12:03:32;19.48;;;12.32;;
70247;SDS011;57641;51.416;5.506;2023-05-10T12:05:59;16.45;;;10.85;;
70247;SDS011;57641;51.416;5.506;2023-05-10T12:08:26;18.63;;;11.70;;
70247;SDS011;57641;51.416;5.506;2023-05-10T12:11:03;19.23;;;11.10;;
70247;SDS011;57641;51.416;5.506;2023-05-10T12:13:30;16.95;;;10.77;;
70247;SDS011;57641;51.416;5.506;2023-05-10T12:15:58;19.30;;;11.38;;
70247;SDS011;57641;51.416;5.506;2023-05-10T12:18:24;21.25;;;12.38;;
70247;SDS011;57641;51.416;5.506;2023-05-10T12:20:53;22.25;;;12.27;;
70247;SDS011;57641;51.416;5.506;2023-05-10T12:23:19;18.13;;;11.10;;
70247;SDS011;57641;51.416;5.506;2023-05-10T12:25:45;20.15;;;10.90;;
70247;SDS011;57641;51.416;5.506;2023-05-10T12:28:11;20.25;;;11.35;;
70247;SDS011;57641;51.416;5.506;2023-05-10T12:30:37;17.63;;;10.20;;
70247;SDS011;57641;51.416;5.506;2023-05-10T12:35:46;17.23;;;10.05;;
70247;SDS011;57641;51.416;5.506;2023-05-10T12:38:31;17.95;;;10.85;;
70247;SDS011;57641;51.416;5.506;2023-05-10T12:41:02;16.40;;;9.88;;
70247;SDS011;57641;51.416;5.506;2023-05-10T12:43:32;18.92;;;11.27;;
70247;SDS011;57641;51.416;5.506;2023-05-10T12:46:03;18.95;;;10.52;;
70247;SDS011;57641;51.416;5.506;2023-05-10T12:48:30;18.48;;;10.50;;
70247;SDS011;57641;51.416;5.506;2023-05-10T12:50:56;18.02;;;10.48;;
70247;SDS011;57641;51.416;5.506;2023-05-10T12:53:22;19.10;;;11.65;;
70247;SDS011;57641;51.416;5.506;2023-05-10T12:55:47;20.45;;;10.18;;
70247;SDS011;57641;51.416;5.506;2023-05-10T12:58:13;17.92;;;7.35;;
70247;SDS011;57641;51.416;5.506;2023-05-10T13:00:39;11.70;;;6.30;;
70247;SDS011;57641;51.416;5.506;2023-05-10T13:03:05;14.20;;;6.68;;
70247;SDS011;57641;51.416;5.506;2023-05-10T13:05:33;9.43;;;5.78;;
70247;SDS011;57641;51.416;5.506;2023-05-10T13:07:59;11.80;;;5.03;;
70247;SDS011;57641;51.416;5.506;2023-05-10T13:10:25;7.68;;;5.05;;
70247;SDS011;57641;51.416;5.506;2023-05-10T13:12:50;7.28;;;5.05;;
70247;SDS011;57641;51.416;5.506;2023-05-10T13:15:16;7.20;;;5.43;;
70247;SDS011;57641;51.416;5.506;2023-05-10T13:17:42;7.22;;;5.63;;
70247;SDS011;57641;51.416;5.506;2023-05-10T13:20:08;8.35;;;5.93;;
70247;SDS011;57641;51.416;5.506;2023-05-10T13:22:37;9.63;;;6.45;;
70247;SDS011;57641;51.416;5.506;2023-05-10T13:25:02;9.13;;;6.55;;
70247;SDS011;57641;51.416;5.506;2023-05-10T13:27:28;8.38;;;6.45;;
70247;SDS011;57641;51.416;5.506;2023-05-10T13:29:53;9.75;;;6.38;;
70247;SDS011;57641;51.416;5.506;2023-05-10T13:32:20;6.97;;;6.07;;
70247;SDS011;57641;51.416;5.506;2023-05-10T13:34:46;9.05;;;6.55;;
70247;SDS011;57641;51.416;5.506;2023-05-10T13:37:12;10.65;;;6.60;;
70247;SDS011;57641;51.416;5.506;2023-05-10T13:39:37;9.82;;;6.55;;
70247;SDS011;57641;51.416;5.506;2023-05-10T13:42:03;11.10;;;7.13;;
70247;SDS011;57641;51.416;5.506;2023-05-10T13:44:29;14.10;;;8.25;;
70247;SDS011;57641;51.416;5.506;2023-05-10T13:46:55;13.52;;;9.20;;
70247;SDS011;57641;51.416;5.506;2023-05-10T13:49:22;23.73;;;11.45;;
70247;SDS011;57641;51.416;5.506;2023-05-10T13:51:47;22.10;;;12.35;;
70247;SDS011;57641;51.416;5.506;2023-05-10T13:54:13;22.15;;;12.40;;
70247;SDS011;57641;51.416;5.506;2023-05-10T13:56:39;25.83;;;13.75;;
70247;SDS011;57641;51.416;5.506;2023-05-10T13:59:06;21.55;;;14.10;;
70247;SDS011;57641;51.416;5.506;2023-05-10T14:01:33;19.33;;;12.20;;
70247;SDS011;57641;51.416;5.506;2023-05-10T14:03:59;16.30;;;10.98;;
70247;SDS011;57641;51.416;5.506;2023-05-10T14:06:25;22.17;;;9.68;;
70247;SDS011;57641;51.416;5.506;2023-05-10T14:08:52;16.20;;;8.55;;
70247;SDS011;57641;51.416;5.506;2023-05-10T14:11:19;14.55;;;7.32;;
70247;SDS011;57641;51.416;5.506;2023-05-10T14:13:45;12.27;;;5.80;;
70247;SDS011;57641;51.416;5.506;2023-05-10T14:16:10;6.90;;;4.30;;
70247;SDS011;57641;51.416;5.506;2023-05-10T14:18:36;9.43;;;5.00;;
70247;SDS011;57641;51.416;5.506;2023-05-10T14:21:03;6.05;;;4.22;;
70247;SDS011;57641;51.416;5.506;2023-05-10T14:23:29;5.53;;;3.05;;
70247;SDS011;57641;51.416;5.506;2023-05-10T14:25:55;5.03;;;3.53;;
70247;SDS011;57641;51.416;5.506;2023-05-10T14:28:20;6.35;;;4.00;;
70247;SDS011;57641;51.416;5.506;2023-05-10T14:30:47;4.18;;;2.90;;
70247;SDS011;57641;51.416;5.506;2023-05-10T14:33:13;4.25;;;2.80;;
70247;SDS011;57641;51.416;5.506;2023-05-10T14:35:38;4.88;;;2.97;;
70247;SDS011;57641;51.416;5.506;2023-05-10T14:38:04;4.00;;;3.20;;
70247;SDS011;57641;51.416;5.506;2023-05-10T14:40:30;6.47;;;2.80;;
70247;SDS011;57641;51.416;5.506;2023-05-10T14:42:56;4.60;;;3.22;;
70247;SDS011;57641;51.416;5.506;2023-05-10T14:45:22;6.15;;;3.35;;
70247;SDS011;57641;51.416;5.506;2023-05-10T14:47:48;6.47;;;4.35;;
70247;SDS011;57641;51.416;5.506;2023-05-10T14:50:15;7.72;;;4.85;;
70247;SDS011;57641;51.416;5.506;2023-05-10T14:52:42;8.02;;;5.30;;
70247;SDS011;57641;51.416;5.506;2023-05-10T14:55:08;8.02;;;4.43;;
70247;SDS011;57641;51.416;5.506;2023-05-10T14:57:34;8.35;;;4.50;;
70247;SDS011;57641;51.416;5.506;2023-05-10T14:59:59;6.70;;;4.05;;
70247;SDS011;57641;51.416;5.506;2023-05-10T15:02:25;5.57;;;3.80;;
70247;SDS011;57641;51.416;5.506;2023-05-10T15:04:50;5.07;;;3.83;;
70247;SDS011;57641;51.416;5.506;2023-05-10T15:07:16;7.63;;;4.50;;
70247;SDS011;57641;51.416;5.506;2023-05-10T15:09:43;7.85;;;4.40;;
70247;SDS011;57641;51.416;5.506;2023-05-10T15:12:09;5.97;;;3.83;;
70247;SDS011;57641;51.416;5.506;2023-05-10T15:14:35;6.65;;;3.70;;
70247;SDS011;57641;51.416;5.506;2023-05-10T15:17:01;6.40;;;3.92;;
70247;SDS011;57641;51.416;5.506;2023-05-10T15:19:27;5.15;;;3.45;;
70247;SDS011;57641;51.416;5.506;2023-05-10T15:21:54;5.65;;;3.25;;
70247;SDS011;57641;51.416;5.506;2023-05-10T15:24:20;5.78;;;3.88;;